<?xml version="1.0" encoding="UTF-8" standalone="no" ?>
<gpx xmlns="http://www.topografix.com/GPX/1/1" xmlns:xsi="http://www.w3.org/2001/XMLSchema-instance" xsi:schemaLocation="http://www.topografix.com/GPX/1/1 http://www.topografix.com/GPX/1/1/gpx.xsd" version="1.1" creator="VisuGPX - https://www.visugpx.com">
  <metadata>
    <name>Sortie 3 Janvier 2016</name>
    <desc><![CDATA[Sortie VTT depart Croix de Toulouse]]></desc>
  </metadata>
  <trk>
    <name><![CDATA[Grande Boucle - All Mountain - 5854 - UtagawaVTT.com]]></name>
    <trkseg>
      <trkpt lat="48.44362" lon="2.71806">
        <ele>92</ele>
        <time>2011-08-15T06:00:00Z</time>
      </trkpt>
      <trkpt lat="48.44299" lon="2.7155">
        <ele>90</ele>
        <time>2011-08-15T06:01:12Z</time>
      </trkpt>
      <trkpt lat="48.44261" lon="2.71425">
        <ele>90</ele>
        <time>2011-08-15T06:01:49Z</time>
      </trkpt>
      <trkpt lat="48.44192" lon="2.7133">
        <ele>91</ele>
        <time>2011-08-15T06:02:27Z</time>
      </trkpt>
      <trkpt lat="48.44113" lon="2.71259">
        <ele>92</ele>
        <time>2011-08-15T06:03:03Z</time>
      </trkpt>
      <trkpt lat="48.44036" lon="2.71176">
        <ele>108</ele>
        <time>2011-08-15T06:03:41Z</time>
      </trkpt>
      <trkpt lat="48.43929" lon="2.71135">
        <ele>116</ele>
        <time>2011-08-15T06:04:25Z</time>
      </trkpt>
      <trkpt lat="48.4393" lon="2.70997">
        <ele>120</ele>
        <time>2011-08-15T06:05:02Z</time>
      </trkpt>
      <trkpt lat="48.43928" lon="2.70855">
        <ele>120</ele>
        <time>2011-08-15T06:05:40Z</time>
      </trkpt>
      <trkpt lat="48.43971" lon="2.70734">
        <ele>112</ele>
        <time>2011-08-15T06:06:16Z</time>
      </trkpt>
      <trkpt lat="48.44018" lon="2.70612">
        <ele>118</ele>
        <time>2011-08-15T06:06:54Z</time>
      </trkpt>
      <trkpt lat="48.44003" lon="2.70478">
        <ele>120</ele>
        <time>2011-08-15T06:07:30Z</time>
      </trkpt>
      <trkpt lat="48.44053" lon="2.70363">
        <ele>115</ele>
        <time>2011-08-15T06:08:06Z</time>
      </trkpt>
      <trkpt lat="48.44081" lon="2.70232">
        <ele>115</ele>
        <time>2011-08-15T06:08:43Z</time>
      </trkpt>
      <trkpt lat="48.44105" lon="2.701">
        <ele>110</ele>
        <time>2011-08-15T06:09:19Z</time>
      </trkpt>
      <trkpt lat="48.44049" lon="2.69987">
        <ele>106</ele>
        <time>2011-08-15T06:09:57Z</time>
      </trkpt>
      <trkpt lat="48.43959" lon="2.6996">
        <ele>107</ele>
        <time>2011-08-15T06:10:34Z</time>
      </trkpt>
      <trkpt lat="48.43873" lon="2.70006">
        <ele>126</ele>
        <time>2011-08-15T06:11:10Z</time>
      </trkpt>
      <trkpt lat="48.43804" lon="2.70098">
        <ele>126</ele>
        <time>2011-08-15T06:11:47Z</time>
      </trkpt>
      <trkpt lat="48.43758" lon="2.70215">
        <ele>141</ele>
        <time>2011-08-15T06:12:23Z</time>
      </trkpt>
      <trkpt lat="48.43709" lon="2.7033">
        <ele>138</ele>
        <time>2011-08-15T06:12:59Z</time>
      </trkpt>
      <trkpt lat="48.43686" lon="2.70475">
        <ele>143</ele>
        <time>2011-08-15T06:13:39Z</time>
      </trkpt>
      <trkpt lat="48.43618" lon="2.70616">
        <ele>139</ele>
        <time>2011-08-15T06:14:26Z</time>
      </trkpt>
      <trkpt lat="48.43602" lon="2.70779">
        <ele>140</ele>
        <time>2011-08-15T06:15:09Z</time>
      </trkpt>
      <trkpt lat="48.43572" lon="2.70925">
        <ele>136</ele>
        <time>2011-08-15T06:15:50Z</time>
      </trkpt>
      <trkpt lat="48.43494" lon="2.70998">
        <ele>124</ele>
        <time>2011-08-15T06:16:27Z</time>
      </trkpt>
      <trkpt lat="48.43431" lon="2.70901">
        <ele>129</ele>
        <time>2011-08-15T06:17:03Z</time>
      </trkpt>
      <trkpt lat="48.43367" lon="2.70997">
        <ele>133</ele>
        <time>2011-08-15T06:17:39Z</time>
      </trkpt>
      <trkpt lat="48.43332" lon="2.71125">
        <ele>131</ele>
        <time>2011-08-15T06:18:17Z</time>
      </trkpt>
      <trkpt lat="48.4325" lon="2.71059">
        <ele>130</ele>
        <time>2011-08-15T06:18:54Z</time>
      </trkpt>
      <trkpt lat="48.43227" lon="2.70925">
        <ele>135</ele>
        <time>2011-08-15T06:19:31Z</time>
      </trkpt>
      <trkpt lat="48.43168" lon="2.7082">
        <ele>137</ele>
        <time>2011-08-15T06:20:07Z</time>
      </trkpt>
      <trkpt lat="48.43087" lon="2.70759">
        <ele>141</ele>
        <time>2011-08-15T06:20:43Z</time>
      </trkpt>
      <trkpt lat="48.42997" lon="2.70791">
        <ele>145</ele>
        <time>2011-08-15T06:21:21Z</time>
      </trkpt>
      <trkpt lat="48.4291" lon="2.7084">
        <ele>150</ele>
        <time>2011-08-15T06:21:57Z</time>
      </trkpt>
      <trkpt lat="48.42817" lon="2.70843">
        <ele>151</ele>
        <time>2011-08-15T06:22:35Z</time>
      </trkpt>
      <trkpt lat="48.42726" lon="2.70847">
        <ele>153</ele>
        <time>2011-08-15T06:23:11Z</time>
      </trkpt>
      <trkpt lat="48.42634" lon="2.70854">
        <ele>150</ele>
        <time>2011-08-15T06:23:48Z</time>
      </trkpt>
      <trkpt lat="48.42544" lon="2.70875">
        <ele>149</ele>
        <time>2011-08-15T06:24:25Z</time>
      </trkpt>
      <trkpt lat="48.42454" lon="2.70848">
        <ele>140</ele>
        <time>2011-08-15T06:25:01Z</time>
      </trkpt>
      <trkpt lat="48.42376" lon="2.7077">
        <ele>144</ele>
        <time>2011-08-15T06:25:39Z</time>
      </trkpt>
      <trkpt lat="48.4232" lon="2.70659">
        <ele>149</ele>
        <time>2011-08-15T06:26:16Z</time>
      </trkpt>
      <trkpt lat="48.4232" lon="2.70521">
        <ele>145</ele>
        <time>2011-08-15T06:26:53Z</time>
      </trkpt>
      <trkpt lat="48.42337" lon="2.7038">
        <ele>142</ele>
        <time>2011-08-15T06:27:31Z</time>
      </trkpt>
      <trkpt lat="48.42355" lon="2.7024">
        <ele>141</ele>
        <time>2011-08-15T06:28:09Z</time>
      </trkpt>
      <trkpt lat="48.42367" lon="2.701">
        <ele>139</ele>
        <time>2011-08-15T06:28:46Z</time>
      </trkpt>
      <trkpt lat="48.4239" lon="2.69967">
        <ele>146</ele>
        <time>2011-08-15T06:29:23Z</time>
      </trkpt>
      <trkpt lat="48.42416" lon="2.69835">
        <ele>143</ele>
        <time>2011-08-15T06:29:59Z</time>
      </trkpt>
      <trkpt lat="48.42439" lon="2.69701">
        <ele>142</ele>
        <time>2011-08-15T06:30:36Z</time>
      </trkpt>
      <trkpt lat="48.42446" lon="2.69558">
        <ele>141</ele>
        <time>2011-08-15T06:31:14Z</time>
      </trkpt>
      <trkpt lat="48.42447" lon="2.69417">
        <ele>142</ele>
        <time>2011-08-15T06:31:52Z</time>
      </trkpt>
      <trkpt lat="48.42371" lon="2.6934">
        <ele>141</ele>
        <time>2011-08-15T06:32:29Z</time>
      </trkpt>
      <trkpt lat="48.42284" lon="2.69297">
        <ele>133</ele>
        <time>2011-08-15T06:33:05Z</time>
      </trkpt>
      <trkpt lat="48.42193" lon="2.69312">
        <ele>119</ele>
        <time>2011-08-15T06:33:42Z</time>
      </trkpt>
      <trkpt lat="48.42101" lon="2.69305">
        <ele>107</ele>
        <time>2011-08-15T06:34:19Z</time>
      </trkpt>
      <trkpt lat="48.42097" lon="2.6945">
        <ele>105</ele>
        <time>2011-08-15T06:34:58Z</time>
      </trkpt>
      <trkpt lat="48.42003" lon="2.69482">
        <ele>98</ele>
        <time>2011-08-15T06:35:36Z</time>
      </trkpt>
      <trkpt lat="48.41909" lon="2.69469">
        <ele>101</ele>
        <time>2011-08-15T06:36:14Z</time>
      </trkpt>
      <trkpt lat="48.41816" lon="2.69451">
        <ele>98</ele>
        <time>2011-08-15T06:36:52Z</time>
      </trkpt>
      <trkpt lat="48.41726" lon="2.69429">
        <ele>106</ele>
        <time>2011-08-15T06:37:28Z</time>
      </trkpt>
      <trkpt lat="48.4164" lon="2.69378">
        <ele>109</ele>
        <time>2011-08-15T06:38:05Z</time>
      </trkpt>
      <trkpt lat="48.41547" lon="2.69339">
        <ele>122</ele>
        <time>2011-08-15T06:38:44Z</time>
      </trkpt>
      <trkpt lat="48.41439" lon="2.6929">
        <ele>130</ele>
        <time>2011-08-15T06:39:29Z</time>
      </trkpt>
      <trkpt lat="48.41446" lon="2.69146">
        <ele>131</ele>
        <time>2011-08-15T06:40:07Z</time>
      </trkpt>
      <trkpt lat="48.41473" lon="2.68994">
        <ele>133</ele>
        <time>2011-08-15T06:40:49Z</time>
      </trkpt>
      <trkpt lat="48.41513" lon="2.68867">
        <ele>131</ele>
        <time>2011-08-15T06:41:27Z</time>
      </trkpt>
      <trkpt lat="48.41517" lon="2.68729">
        <ele>134</ele>
        <time>2011-08-15T06:42:04Z</time>
      </trkpt>
      <trkpt lat="48.41492" lon="2.68593">
        <ele>143</ele>
        <time>2011-08-15T06:42:41Z</time>
      </trkpt>
      <trkpt lat="48.41417" lon="2.6851">
        <ele>144</ele>
        <time>2011-08-15T06:43:18Z</time>
      </trkpt>
      <trkpt lat="48.41333" lon="2.6845">
        <ele>141</ele>
        <time>2011-08-15T06:43:56Z</time>
      </trkpt>
      <trkpt lat="48.41253" lon="2.68386">
        <ele>130</ele>
        <time>2011-08-15T06:44:32Z</time>
      </trkpt>
      <trkpt lat="48.41174" lon="2.6832">
        <ele>109</ele>
        <time>2011-08-15T06:45:08Z</time>
      </trkpt>
      <trkpt lat="48.41099" lon="2.6841">
        <ele>105</ele>
        <time>2011-08-15T06:45:46Z</time>
      </trkpt>
      <trkpt lat="48.41031" lon="2.685">
        <ele>98</ele>
        <time>2011-08-15T06:46:23Z</time>
      </trkpt>
      <trkpt lat="48.40948" lon="2.68561">
        <ele>92</ele>
        <time>2011-08-15T06:47:00Z</time>
      </trkpt>
      <trkpt lat="48.40858" lon="2.68587">
        <ele>92</ele>
        <time>2011-08-15T06:47:36Z</time>
      </trkpt>
      <trkpt lat="48.40855" lon="2.6845">
        <ele>94</ele>
        <time>2011-08-15T06:48:13Z</time>
      </trkpt>
      <trkpt lat="48.40868" lon="2.68314">
        <ele>94</ele>
        <time>2011-08-15T06:48:49Z</time>
      </trkpt>
      <trkpt lat="48.40886" lon="2.68176">
        <ele>93</ele>
        <time>2011-08-15T06:49:26Z</time>
      </trkpt>
      <trkpt lat="48.40847" lon="2.68047">
        <ele>91</ele>
        <time>2011-08-15T06:50:04Z</time>
      </trkpt>
      <trkpt lat="48.40825" lon="2.67899">
        <ele>94</ele>
        <time>2011-08-15T06:50:45Z</time>
      </trkpt>
      <trkpt lat="48.40868" lon="2.67774">
        <ele>96</ele>
        <time>2011-08-15T06:51:22Z</time>
      </trkpt>
      <trkpt lat="48.40911" lon="2.67651">
        <ele>97</ele>
        <time>2011-08-15T06:51:59Z</time>
      </trkpt>
      <trkpt lat="48.4096" lon="2.67534">
        <ele>103</ele>
        <time>2011-08-15T06:52:36Z</time>
      </trkpt>
      <trkpt lat="48.40963" lon="2.67398">
        <ele>105</ele>
        <time>2011-08-15T06:53:12Z</time>
      </trkpt>
      <trkpt lat="48.40895" lon="2.67287">
        <ele>125</ele>
        <time>2011-08-15T06:53:52Z</time>
      </trkpt>
      <trkpt lat="48.40817" lon="2.67216">
        <ele>120</ele>
        <time>2011-08-15T06:54:29Z</time>
      </trkpt>
      <trkpt lat="48.40774" lon="2.67092">
        <ele>119</ele>
        <time>2011-08-15T06:55:06Z</time>
      </trkpt>
      <trkpt lat="48.40749" lon="2.66959">
        <ele>124</ele>
        <time>2011-08-15T06:55:43Z</time>
      </trkpt>
      <trkpt lat="48.4073" lon="2.66822">
        <ele>129</ele>
        <time>2011-08-15T06:56:20Z</time>
      </trkpt>
      <trkpt lat="48.40752" lon="2.66683">
        <ele>127</ele>
        <time>2011-08-15T06:56:58Z</time>
      </trkpt>
      <trkpt lat="48.40793" lon="2.66559">
        <ele>139</ele>
        <time>2011-08-15T06:57:35Z</time>
      </trkpt>
      <trkpt lat="48.40803" lon="2.6642">
        <ele>140</ele>
        <time>2011-08-15T06:58:12Z</time>
      </trkpt>
      <trkpt lat="48.40808" lon="2.66276">
        <ele>139</ele>
        <time>2011-08-15T06:58:50Z</time>
      </trkpt>
      <trkpt lat="48.40778" lon="2.66139">
        <ele>127</ele>
        <time>2011-08-15T06:59:29Z</time>
      </trkpt>
      <trkpt lat="48.4076" lon="2.66004">
        <ele>128</ele>
        <time>2011-08-15T07:00:05Z</time>
      </trkpt>
      <trkpt lat="48.40767" lon="2.65867">
        <ele>125</ele>
        <time>2011-08-15T07:00:42Z</time>
      </trkpt>
      <trkpt lat="48.40786" lon="2.65728">
        <ele>123</ele>
        <time>2011-08-15T07:01:20Z</time>
      </trkpt>
      <trkpt lat="48.40793" lon="2.65585">
        <ele>137</ele>
        <time>2011-08-15T07:01:58Z</time>
      </trkpt>
      <trkpt lat="48.40777" lon="2.65451">
        <ele>129</ele>
        <time>2011-08-15T07:02:34Z</time>
      </trkpt>
      <trkpt lat="48.40781" lon="2.65311">
        <ele>127</ele>
        <time>2011-08-15T07:03:11Z</time>
      </trkpt>
      <trkpt lat="48.40788" lon="2.65171">
        <ele>121</ele>
        <time>2011-08-15T07:03:49Z</time>
      </trkpt>
      <trkpt lat="48.40732" lon="2.6506">
        <ele>120</ele>
        <time>2011-08-15T07:04:25Z</time>
      </trkpt>
      <trkpt lat="48.40682" lon="2.64943">
        <ele>119</ele>
        <time>2011-08-15T07:05:02Z</time>
      </trkpt>
      <trkpt lat="48.40654" lon="2.6481">
        <ele>121</ele>
        <time>2011-08-15T07:05:39Z</time>
      </trkpt>
      <trkpt lat="48.40665" lon="2.64659">
        <ele>127</ele>
        <time>2011-08-15T07:06:20Z</time>
      </trkpt>
      <trkpt lat="48.40659" lon="2.64522">
        <ele>131</ele>
        <time>2011-08-15T07:06:57Z</time>
      </trkpt>
      <trkpt lat="48.40668" lon="2.64382">
        <ele>132</ele>
        <time>2011-08-15T07:07:34Z</time>
      </trkpt>
      <trkpt lat="48.40659" lon="2.64243">
        <ele>136</ele>
        <time>2011-08-15T07:08:11Z</time>
      </trkpt>
      <trkpt lat="48.40685" lon="2.64113">
        <ele>136</ele>
        <time>2011-08-15T07:08:47Z</time>
      </trkpt>
      <trkpt lat="48.40621" lon="2.64017">
        <ele>134</ele>
        <time>2011-08-15T07:09:23Z</time>
      </trkpt>
      <trkpt lat="48.40543" lon="2.63945">
        <ele>134</ele>
        <time>2011-08-15T07:10:00Z</time>
      </trkpt>
      <trkpt lat="48.40468" lon="2.63862">
        <ele>134</ele>
        <time>2011-08-15T07:10:37Z</time>
      </trkpt>
      <trkpt lat="48.4052" lon="2.6373">
        <ele>137</ele>
        <time>2011-08-15T07:11:18Z</time>
      </trkpt>
      <trkpt lat="48.40531" lon="2.63592">
        <ele>138</ele>
        <time>2011-08-15T07:11:55Z</time>
      </trkpt>
      <trkpt lat="48.4055" lon="2.63459">
        <ele>136</ele>
        <time>2011-08-15T07:12:31Z</time>
      </trkpt>
      <trkpt lat="48.40587" lon="2.63333">
        <ele>135</ele>
        <time>2011-08-15T07:13:08Z</time>
      </trkpt>
      <trkpt lat="48.40612" lon="2.63202">
        <ele>133</ele>
        <time>2011-08-15T07:13:44Z</time>
      </trkpt>
      <trkpt lat="48.40634" lon="2.6307">
        <ele>133</ele>
        <time>2011-08-15T07:14:20Z</time>
      </trkpt>
      <trkpt lat="48.40719" lon="2.63113">
        <ele>131</ele>
        <time>2011-08-15T07:14:57Z</time>
      </trkpt>
      <trkpt lat="48.40809" lon="2.63157">
        <ele>134</ele>
        <time>2011-08-15T07:15:34Z</time>
      </trkpt>
      <trkpt lat="48.40895" lon="2.63112">
        <ele>134</ele>
        <time>2011-08-15T07:16:11Z</time>
      </trkpt>
      <trkpt lat="48.40911" lon="2.62977">
        <ele>134</ele>
        <time>2011-08-15T07:16:48Z</time>
      </trkpt>
      <trkpt lat="48.40902" lon="2.62841">
        <ele>131</ele>
        <time>2011-08-15T07:17:24Z</time>
      </trkpt>
      <trkpt lat="48.40829" lon="2.62761">
        <ele>126</ele>
        <time>2011-08-15T07:18:00Z</time>
      </trkpt>
      <trkpt lat="48.40887" lon="2.62641">
        <ele>131</ele>
        <time>2011-08-15T07:18:39Z</time>
      </trkpt>
      <trkpt lat="48.40908" lon="2.62495">
        <ele>128</ele>
        <time>2011-08-15T07:19:19Z</time>
      </trkpt>
      <trkpt lat="48.40926" lon="2.62358">
        <ele>128</ele>
        <time>2011-08-15T07:19:56Z</time>
      </trkpt>
      <trkpt lat="48.40911" lon="2.62224">
        <ele>127</ele>
        <time>2011-08-15T07:20:32Z</time>
      </trkpt>
      <trkpt lat="48.40908" lon="2.62088">
        <ele>125</ele>
        <time>2011-08-15T07:21:09Z</time>
      </trkpt>
      <trkpt lat="48.40946" lon="2.61962">
        <ele>123</ele>
        <time>2011-08-15T07:21:45Z</time>
      </trkpt>
      <trkpt lat="48.4095" lon="2.61824">
        <ele>119</ele>
        <time>2011-08-15T07:22:22Z</time>
      </trkpt>
      <trkpt lat="48.41041" lon="2.61848">
        <ele>124</ele>
        <time>2011-08-15T07:22:59Z</time>
      </trkpt>
      <trkpt lat="48.41081" lon="2.61971">
        <ele>110</ele>
        <time>2011-08-15T07:23:35Z</time>
      </trkpt>
      <trkpt lat="48.41062" lon="2.62104">
        <ele>113</ele>
        <time>2011-08-15T07:24:12Z</time>
      </trkpt>
      <trkpt lat="48.41065" lon="2.6224">
        <ele>123</ele>
        <time>2011-08-15T07:24:48Z</time>
      </trkpt>
      <trkpt lat="48.41045" lon="2.62375">
        <ele>128</ele>
        <time>2011-08-15T07:25:24Z</time>
      </trkpt>
      <trkpt lat="48.40994" lon="2.62489">
        <ele>128</ele>
        <time>2011-08-15T07:26:01Z</time>
      </trkpt>
      <trkpt lat="48.40967" lon="2.62621">
        <ele>128</ele>
        <time>2011-08-15T07:26:38Z</time>
      </trkpt>
      <trkpt lat="48.40969" lon="2.62762">
        <ele>132</ele>
        <time>2011-08-15T07:27:15Z</time>
      </trkpt>
      <trkpt lat="48.40986" lon="2.62896">
        <ele>133</ele>
        <time>2011-08-15T07:27:52Z</time>
      </trkpt>
      <trkpt lat="48.41013" lon="2.63027">
        <ele>136</ele>
        <time>2011-08-15T07:28:28Z</time>
      </trkpt>
      <trkpt lat="48.41001" lon="2.63165">
        <ele>140</ele>
        <time>2011-08-15T07:29:05Z</time>
      </trkpt>
      <trkpt lat="48.41041" lon="2.63289">
        <ele>139</ele>
        <time>2011-08-15T07:29:42Z</time>
      </trkpt>
      <trkpt lat="48.41137" lon="2.63274">
        <ele>138</ele>
        <time>2011-08-15T07:30:21Z</time>
      </trkpt>
      <trkpt lat="48.41227" lon="2.63252">
        <ele>136</ele>
        <time>2011-08-15T07:30:57Z</time>
      </trkpt>
      <trkpt lat="48.41323" lon="2.63238">
        <ele>133</ele>
        <time>2011-08-15T07:31:36Z</time>
      </trkpt>
      <trkpt lat="48.41417" lon="2.63218">
        <ele>131</ele>
        <time>2011-08-15T07:32:14Z</time>
      </trkpt>
      <trkpt lat="48.41509" lon="2.632">
        <ele>129</ele>
        <time>2011-08-15T07:32:51Z</time>
      </trkpt>
      <trkpt lat="48.41601" lon="2.63188">
        <ele>131</ele>
        <time>2011-08-15T07:33:28Z</time>
      </trkpt>
      <trkpt lat="48.41702" lon="2.63166">
        <ele>136</ele>
        <time>2011-08-15T07:34:09Z</time>
      </trkpt>
      <trkpt lat="48.41792" lon="2.63145">
        <ele>134</ele>
        <time>2011-08-15T07:34:45Z</time>
      </trkpt>
      <trkpt lat="48.41883" lon="2.63126">
        <ele>130</ele>
        <time>2011-08-15T07:35:22Z</time>
      </trkpt>
      <trkpt lat="48.41978" lon="2.63112">
        <ele>120</ele>
        <time>2011-08-15T07:36:01Z</time>
      </trkpt>
      <trkpt lat="48.42075" lon="2.63095">
        <ele>112</ele>
        <time>2011-08-15T07:36:40Z</time>
      </trkpt>
      <trkpt lat="48.42173" lon="2.63077">
        <ele>107</ele>
        <time>2011-08-15T07:37:19Z</time>
      </trkpt>
      <trkpt lat="48.42264" lon="2.63061">
        <ele>107</ele>
        <time>2011-08-15T07:37:56Z</time>
      </trkpt>
      <trkpt lat="48.42358" lon="2.63046">
        <ele>112</ele>
        <time>2011-08-15T07:38:34Z</time>
      </trkpt>
      <trkpt lat="48.42456" lon="2.63029">
        <ele>121</ele>
        <time>2011-08-15T07:39:13Z</time>
      </trkpt>
      <trkpt lat="48.42558" lon="2.63014">
        <ele>136</ele>
        <time>2011-08-15T07:39:54Z</time>
      </trkpt>
      <trkpt lat="48.4265" lon="2.62991">
        <ele>139</ele>
        <time>2011-08-15T07:40:32Z</time>
      </trkpt>
      <trkpt lat="48.42741" lon="2.62973">
        <ele>141</ele>
        <time>2011-08-15T07:41:09Z</time>
      </trkpt>
      <trkpt lat="48.42825" lon="2.62921">
        <ele>142</ele>
        <time>2011-08-15T07:41:45Z</time>
      </trkpt>
      <trkpt lat="48.42893" lon="2.62827">
        <ele>145</ele>
        <time>2011-08-15T07:42:22Z</time>
      </trkpt>
      <trkpt lat="48.4296" lon="2.62727">
        <ele>147</ele>
        <time>2011-08-15T07:43:00Z</time>
      </trkpt>
      <trkpt lat="48.43029" lon="2.62629">
        <ele>144</ele>
        <time>2011-08-15T07:43:38Z</time>
      </trkpt>
      <trkpt lat="48.43097" lon="2.62526">
        <ele>144</ele>
        <time>2011-08-15T07:44:16Z</time>
      </trkpt>
      <trkpt lat="48.43165" lon="2.62434">
        <ele>139</ele>
        <time>2011-08-15T07:44:53Z</time>
      </trkpt>
      <trkpt lat="48.43244" lon="2.62368">
        <ele>130</ele>
        <time>2011-08-15T07:45:30Z</time>
      </trkpt>
      <trkpt lat="48.43303" lon="2.62251">
        <ele>126</ele>
        <time>2011-08-15T07:46:08Z</time>
      </trkpt>
      <trkpt lat="48.43327" lon="2.6212">
        <ele>132</ele>
        <time>2011-08-15T07:46:45Z</time>
      </trkpt>
      <trkpt lat="48.4333" lon="2.62075">
        <ele>132</ele>
        <time>2011-08-15T07:46:57Z</time>
      </trkpt>
      <trkpt lat="48.4333" lon="2.62075">
        <ele>132</ele>
        <time>2011-08-15T07:46:57Z</time>
      </trkpt>
      <trkpt lat="48.43352" lon="2.61943">
        <ele>134</ele>
        <time>2011-08-15T07:47:33Z</time>
      </trkpt>
      <trkpt lat="48.43363" lon="2.618">
        <ele>132</ele>
        <time>2011-08-15T07:48:11Z</time>
      </trkpt>
      <trkpt lat="48.43396" lon="2.61672">
        <ele>127</ele>
        <time>2011-08-15T07:48:48Z</time>
      </trkpt>
      <trkpt lat="48.43424" lon="2.6153">
        <ele>127</ele>
        <time>2011-08-15T07:49:27Z</time>
      </trkpt>
      <trkpt lat="48.4346" lon="2.61405">
        <ele>122</ele>
        <time>2011-08-15T07:50:03Z</time>
      </trkpt>
      <trkpt lat="48.43499" lon="2.61275">
        <ele>128</ele>
        <time>2011-08-15T07:50:41Z</time>
      </trkpt>
      <trkpt lat="48.43572" lon="2.61194">
        <ele>131</ele>
        <time>2011-08-15T07:51:18Z</time>
      </trkpt>
      <trkpt lat="48.43648" lon="2.61119">
        <ele>116</ele>
        <time>2011-08-15T07:51:54Z</time>
      </trkpt>
      <trkpt lat="48.43682" lon="2.61248">
        <ele>114</ele>
        <time>2011-08-15T07:52:31Z</time>
      </trkpt>
      <trkpt lat="48.43711" lon="2.61382">
        <ele>103</ele>
        <time>2011-08-15T07:53:09Z</time>
      </trkpt>
      <trkpt lat="48.437" lon="2.61517">
        <ele>96</ele>
        <time>2011-08-15T07:53:45Z</time>
      </trkpt>
      <trkpt lat="48.43687" lon="2.61652">
        <ele>96</ele>
        <time>2011-08-15T07:54:21Z</time>
      </trkpt>
      <trkpt lat="48.43744" lon="2.6176">
        <ele>93</ele>
        <time>2011-08-15T07:54:58Z</time>
      </trkpt>
      <trkpt lat="48.43822" lon="2.61827">
        <ele>96</ele>
        <time>2011-08-15T07:55:34Z</time>
      </trkpt>
      <trkpt lat="48.43861" lon="2.61951">
        <ele>96</ele>
        <time>2011-08-15T07:56:10Z</time>
      </trkpt>
      <trkpt lat="48.43924" lon="2.62051">
        <ele>104</ele>
        <time>2011-08-15T07:56:47Z</time>
      </trkpt>
      <trkpt lat="48.43964" lon="2.62174">
        <ele>105</ele>
        <time>2011-08-15T07:57:23Z</time>
      </trkpt>
      <trkpt lat="48.43979" lon="2.62309">
        <ele>97</ele>
        <time>2011-08-15T07:58:00Z</time>
      </trkpt>
      <trkpt lat="48.44046" lon="2.624">
        <ele>92</ele>
        <time>2011-08-15T07:58:36Z</time>
      </trkpt>
      <trkpt lat="48.44122" lon="2.62477">
        <ele>92</ele>
        <time>2011-08-15T07:59:13Z</time>
      </trkpt>
      <trkpt lat="48.44166" lon="2.62599">
        <ele>90</ele>
        <time>2011-08-15T07:59:50Z</time>
      </trkpt>
      <trkpt lat="48.44208" lon="2.62721">
        <ele>92</ele>
        <time>2011-08-15T08:00:26Z</time>
      </trkpt>
      <trkpt lat="48.44246" lon="2.62849">
        <ele>86</ele>
        <time>2011-08-15T08:01:04Z</time>
      </trkpt>
      <trkpt lat="48.44295" lon="2.62967">
        <ele>87</ele>
        <time>2011-08-15T08:01:40Z</time>
      </trkpt>
      <trkpt lat="48.44354" lon="2.63075">
        <ele>92</ele>
        <time>2011-08-15T08:02:18Z</time>
      </trkpt>
      <trkpt lat="48.44398" lon="2.63197">
        <ele>87</ele>
        <time>2011-08-15T08:02:55Z</time>
      </trkpt>
      <trkpt lat="48.44428" lon="2.63332">
        <ele>91</ele>
        <time>2011-08-15T08:03:33Z</time>
      </trkpt>
      <trkpt lat="48.4446" lon="2.63463">
        <ele>88</ele>
        <time>2011-08-15T08:04:10Z</time>
      </trkpt>
      <trkpt lat="48.44505" lon="2.63586">
        <ele>89</ele>
        <time>2011-08-15T08:04:47Z</time>
      </trkpt>
      <trkpt lat="48.44523" lon="2.6372">
        <ele>92</ele>
        <time>2011-08-15T08:05:23Z</time>
      </trkpt>
      <trkpt lat="48.44604" lon="2.63785">
        <ele>88</ele>
        <time>2011-08-15T08:06:00Z</time>
      </trkpt>
      <trkpt lat="48.446" lon="2.63926">
        <ele>94</ele>
        <time>2011-08-15T08:06:37Z</time>
      </trkpt>
      <trkpt lat="48.44577" lon="2.64059">
        <ele>100</ele>
        <time>2011-08-15T08:07:14Z</time>
      </trkpt>
      <trkpt lat="48.44551" lon="2.6419">
        <ele>101</ele>
        <time>2011-08-15T08:07:51Z</time>
      </trkpt>
      <trkpt lat="48.44553" lon="2.64327">
        <ele>102</ele>
        <time>2011-08-15T08:08:27Z</time>
      </trkpt>
      <trkpt lat="48.44514" lon="2.6445">
        <ele>99</ele>
        <time>2011-08-15T08:09:03Z</time>
      </trkpt>
      <trkpt lat="48.44489" lon="2.64586">
        <ele>105</ele>
        <time>2011-08-15T08:09:41Z</time>
      </trkpt>
      <trkpt lat="48.44457" lon="2.64718">
        <ele>98</ele>
        <time>2011-08-15T08:10:18Z</time>
      </trkpt>
      <trkpt lat="48.44454" lon="2.64854">
        <ele>100</ele>
        <time>2011-08-15T08:10:54Z</time>
      </trkpt>
      <trkpt lat="48.44417" lon="2.64981">
        <ele>102</ele>
        <time>2011-08-15T08:11:31Z</time>
      </trkpt>
      <trkpt lat="48.444" lon="2.65115">
        <ele>103</ele>
        <time>2011-08-15T08:12:08Z</time>
      </trkpt>
      <trkpt lat="48.4443" lon="2.65246">
        <ele>104</ele>
        <time>2011-08-15T08:12:44Z</time>
      </trkpt>
      <trkpt lat="48.444" lon="2.65381">
        <ele>119</ele>
        <time>2011-08-15T08:13:22Z</time>
      </trkpt>
      <trkpt lat="48.44376" lon="2.65516">
        <ele>126</ele>
        <time>2011-08-15T08:13:59Z</time>
      </trkpt>
      <trkpt lat="48.44348" lon="2.65645">
        <ele>115</ele>
        <time>2011-08-15T08:14:36Z</time>
      </trkpt>
      <trkpt lat="48.4431" lon="2.65772">
        <ele>121</ele>
        <time>2011-08-15T08:15:13Z</time>
      </trkpt>
      <trkpt lat="48.44266" lon="2.65897">
        <ele>116</ele>
        <time>2011-08-15T08:15:50Z</time>
      </trkpt>
      <trkpt lat="48.44326" lon="2.65999">
        <ele>132</ele>
        <time>2011-08-15T08:16:26Z</time>
      </trkpt>
      <trkpt lat="48.44353" lon="2.66129">
        <ele>139</ele>
        <time>2011-08-15T08:17:02Z</time>
      </trkpt>
      <trkpt lat="48.44392" lon="2.66256">
        <ele>142</ele>
        <time>2011-08-15T08:17:39Z</time>
      </trkpt>
      <trkpt lat="48.44407" lon="2.66392">
        <ele>142</ele>
        <time>2011-08-15T08:18:16Z</time>
      </trkpt>
      <trkpt lat="48.44399" lon="2.66533">
        <ele>144</ele>
        <time>2011-08-15T08:18:54Z</time>
      </trkpt>
      <trkpt lat="48.44378" lon="2.66669">
        <ele>145</ele>
        <time>2011-08-15T08:19:31Z</time>
      </trkpt>
      <trkpt lat="48.44325" lon="2.66784">
        <ele>145</ele>
        <time>2011-08-15T08:20:09Z</time>
      </trkpt>
      <trkpt lat="48.4438" lon="2.66896">
        <ele>147</ele>
        <time>2011-08-15T08:20:45Z</time>
      </trkpt>
      <trkpt lat="48.44391" lon="2.67032">
        <ele>145</ele>
        <time>2011-08-15T08:21:22Z</time>
      </trkpt>
      <trkpt lat="48.44387" lon="2.67177">
        <ele>147</ele>
        <time>2011-08-15T08:22:00Z</time>
      </trkpt>
      <trkpt lat="48.44341" lon="2.67298">
        <ele>147</ele>
        <time>2011-08-15T08:22:38Z</time>
      </trkpt>
      <trkpt lat="48.44302" lon="2.67422">
        <ele>145</ele>
        <time>2011-08-15T08:23:14Z</time>
      </trkpt>
      <trkpt lat="48.44308" lon="2.67561">
        <ele>143</ele>
        <time>2011-08-15T08:23:51Z</time>
      </trkpt>
      <trkpt lat="48.44272" lon="2.67698">
        <ele>133</ele>
        <time>2011-08-15T08:24:30Z</time>
      </trkpt>
      <trkpt lat="48.44287" lon="2.67835">
        <ele>136</ele>
        <time>2011-08-15T08:25:07Z</time>
      </trkpt>
      <trkpt lat="48.44236" lon="2.67955">
        <ele>139</ele>
        <time>2011-08-15T08:25:45Z</time>
      </trkpt>
      <trkpt lat="48.44303" lon="2.68052">
        <ele>143</ele>
        <time>2011-08-15T08:26:22Z</time>
      </trkpt>
      <trkpt lat="48.44334" lon="2.68184">
        <ele>137</ele>
        <time>2011-08-15T08:26:59Z</time>
      </trkpt>
      <trkpt lat="48.4442" lon="2.68139">
        <ele>137</ele>
        <time>2011-08-15T08:27:36Z</time>
      </trkpt>
      <trkpt lat="48.44475" lon="2.68029">
        <ele>143</ele>
        <time>2011-08-15T08:28:13Z</time>
      </trkpt>
      <trkpt lat="48.44566" lon="2.68034">
        <ele>141</ele>
        <time>2011-08-15T08:28:49Z</time>
      </trkpt>
      <trkpt lat="48.44654" lon="2.68086">
        <ele>138</ele>
        <time>2011-08-15T08:29:28Z</time>
      </trkpt>
      <trkpt lat="48.44733" lon="2.68155">
        <ele>133</ele>
        <time>2011-08-15T08:30:04Z</time>
      </trkpt>
      <trkpt lat="48.44804" lon="2.68244">
        <ele>130</ele>
        <time>2011-08-15T08:30:41Z</time>
      </trkpt>
      <trkpt lat="48.44866" lon="2.68345">
        <ele>133</ele>
        <time>2011-08-15T08:31:17Z</time>
      </trkpt>
      <trkpt lat="48.44799" lon="2.68436">
        <ele>132</ele>
        <time>2011-08-15T08:31:53Z</time>
      </trkpt>
      <trkpt lat="48.44863" lon="2.68533">
        <ele>119</ele>
        <time>2011-08-15T08:32:30Z</time>
      </trkpt>
      <trkpt lat="48.44919" lon="2.68644">
        <ele>102</ele>
        <time>2011-08-15T08:33:07Z</time>
      </trkpt>
      <trkpt lat="48.4499" lon="2.68729">
        <ele>97</ele>
        <time>2011-08-15T08:33:43Z</time>
      </trkpt>
      <trkpt lat="48.4508" lon="2.68744">
        <ele>100</ele>
        <time>2011-08-15T08:34:20Z</time>
      </trkpt>
      <trkpt lat="48.45171" lon="2.68746">
        <ele>110</ele>
        <time>2011-08-15T08:34:56Z</time>
      </trkpt>
      <trkpt lat="48.45215" lon="2.68869">
        <ele>111</ele>
        <time>2011-08-15T08:35:33Z</time>
      </trkpt>
      <trkpt lat="48.45167" lon="2.68987">
        <ele>103</ele>
        <time>2011-08-15T08:36:10Z</time>
      </trkpt>
      <trkpt lat="48.45122" lon="2.69107">
        <ele>101</ele>
        <time>2011-08-15T08:36:47Z</time>
      </trkpt>
      <trkpt lat="48.45041" lon="2.69169">
        <ele>97</ele>
        <time>2011-08-15T08:37:23Z</time>
      </trkpt>
      <trkpt lat="48.44973" lon="2.69258">
        <ele>93</ele>
        <time>2011-08-15T08:37:59Z</time>
      </trkpt>
      <trkpt lat="48.4488" lon="2.69255">
        <ele>89</ele>
        <time>2011-08-15T08:38:36Z</time>
      </trkpt>
      <trkpt lat="48.44795" lon="2.69301">
        <ele>88</ele>
        <time>2011-08-15T08:39:13Z</time>
      </trkpt>
      <trkpt lat="48.44719" lon="2.69377">
        <ele>94</ele>
        <time>2011-08-15T08:39:49Z</time>
      </trkpt>
      <trkpt lat="48.44634" lon="2.69327">
        <ele>99</ele>
        <time>2011-08-15T08:40:26Z</time>
      </trkpt>
      <trkpt lat="48.44556" lon="2.69395">
        <ele>95</ele>
        <time>2011-08-15T08:41:02Z</time>
      </trkpt>
      <trkpt lat="48.44478" lon="2.69465">
        <ele>99</ele>
        <time>2011-08-15T08:41:38Z</time>
      </trkpt>
      <trkpt lat="48.44388" lon="2.69438">
        <ele>100</ele>
        <time>2011-08-15T08:42:15Z</time>
      </trkpt>
      <trkpt lat="48.44313" lon="2.69514">
        <ele>93</ele>
        <time>2011-08-15T08:42:51Z</time>
      </trkpt>
      <trkpt lat="48.44336" lon="2.69648">
        <ele>96</ele>
        <time>2011-08-15T08:43:28Z</time>
      </trkpt>
      <trkpt lat="48.44309" lon="2.69782">
        <ele>100</ele>
        <time>2011-08-15T08:44:06Z</time>
      </trkpt>
      <trkpt lat="48.44345" lon="2.69913">
        <ele>96</ele>
        <time>2011-08-15T08:44:43Z</time>
      </trkpt>
      <trkpt lat="48.44368" lon="2.70047">
        <ele>95</ele>
        <time>2011-08-15T08:45:20Z</time>
      </trkpt>
      <trkpt lat="48.4436" lon="2.70185">
        <ele>95</ele>
        <time>2011-08-15T08:45:57Z</time>
      </trkpt>
      <trkpt lat="48.44338" lon="2.70319">
        <ele>96</ele>
        <time>2011-08-15T08:46:34Z</time>
      </trkpt>
      <trkpt lat="48.44379" lon="2.70442">
        <ele>92</ele>
        <time>2011-08-15T08:47:10Z</time>
      </trkpt>
      <trkpt lat="48.44447" lon="2.7054">
        <ele>91</ele>
        <time>2011-08-15T08:47:48Z</time>
      </trkpt>
      <trkpt lat="48.44512" lon="2.70636">
        <ele>90</ele>
        <time>2011-08-15T08:48:24Z</time>
      </trkpt>
      <trkpt lat="48.44604" lon="2.70692">
        <ele>90</ele>
        <time>2011-08-15T08:49:04Z</time>
      </trkpt>
      <trkpt lat="48.4465" lon="2.7081">
        <ele>90</ele>
        <time>2011-08-15T08:49:40Z</time>
      </trkpt>
      <trkpt lat="48.4466" lon="2.70947">
        <ele>92</ele>
        <time>2011-08-15T08:50:17Z</time>
      </trkpt>
      <trkpt lat="48.44648" lon="2.71086">
        <ele>98</ele>
        <time>2011-08-15T08:50:54Z</time>
      </trkpt>
      <trkpt lat="48.44627" lon="2.71221">
        <ele>99</ele>
        <time>2011-08-15T08:51:31Z</time>
      </trkpt>
      <trkpt lat="48.44653" lon="2.71358">
        <ele>98</ele>
        <time>2011-08-15T08:52:09Z</time>
      </trkpt>
      <trkpt lat="48.44659" lon="2.71496">
        <ele>95</ele>
        <time>2011-08-15T08:52:46Z</time>
      </trkpt>
      <trkpt lat="48.44587" lon="2.71592">
        <ele>93</ele>
        <time>2011-08-15T08:53:24Z</time>
      </trkpt>
      <trkpt lat="48.44516" lon="2.71682">
        <ele>94</ele>
        <time>2011-08-15T08:54:02Z</time>
      </trkpt>
      <trkpt lat="48.44443" lon="2.71775">
        <ele>92</ele>
        <time>2011-08-15T08:54:40Z</time>
      </trkpt>
    </trkseg>
  </trk>
</gpx>